sensor_id;sensor_type;location;lat;lon;timestamp;P1;durP1;ratioP1;P2;durP2;ratioP2
485;SDS011;229;48.734;9.340;2023-02-16T00:00:49;27.45;;;20.25;;
485;SDS011;229;48.734;9.340;2023-02-16T00:03:17;26.60;;;18.88;;
485;SDS011;229;48.734;9.340;2023-02-16T00:05:44;27.02;;;20.42;;
485;SDS011;229;48.734;9.340;2023-02-16T00:08:12;31.00;;;21.35;;
485;SDS011;229;48.734;9.340;2023-02-16T00:10:39;26.60;;;20.13;;
485;SDS011;229;48.734;9.340;2023-02-16T00:13:27;33.70;;;22.23;;
485;SDS011;229;48.734;9.340;2023-02-16T00:16:10;27.13;;;20.73;;
485;SDS011;229;48.734;9.340;2023-02-16T00:18:38;27.95;;;20.67;;
485;SDS011;229;48.734;9.340;2023-02-16T00:21:06;29.20;;;19.60;;
485;SDS011;229;48.734;9.340;2023-02-16T00:23:33;41.25;;;25.83;;
485;SDS011;229;48.734;9.340;2023-02-16T00:26:00;31.88;;;22.15;;
485;SDS011;229;48.734;9.340;2023-02-16T00:28:28;41.03;;;23.33;;
485;SDS011;229;48.734;9.340;2023-02-16T00:30:56;32.28;;;20.92;;
485;SDS011;229;48.734;9.340;2023-02-16T00:33:23;26.70;;;19.15;;
485;SDS011;229;48.734;9.340;2023-02-16T00:35:50;27.45;;;19.67;;
485;SDS011;229;48.734;9.340;2023-02-16T00:38:17;29.48;;;18.80;;
485;SDS011;229;48.734;9.340;2023-02-16T00:40:44;26.98;;;19.90;;
485;SDS011;229;48.734;9.340;2023-02-16T00:43:15;31.80;;;20.67;;
485;SDS011;229;48.734;9.340;2023-02-16T00:45:49;29.27;;;19.05;;
485;SDS011;229;48.734;9.340;2023-02-16T00:48:16;29.00;;;20.77;;
485;SDS011;229;48.734;9.340;2023-02-16T00:50:43;28.50;;;19.85;;
485;SDS011;229;48.734;9.340;2023-02-16T00:53:11;28.13;;;20.75;;
485;SDS011;229;48.734;9.340;2023-02-16T00:55:38;27.10;;;20.52;;
485;SDS011;229;48.734;9.340;2023-02-16T00:58:07;29.50;;;19.23;;
485;SDS011;229;48.734;9.340;2023-02-16T01:00:39;32.03;;;21.15;;
485;SDS011;229;48.734;9.340;2023-02-16T01:03:08;34.47;;;21.33;;
485;SDS011;229;48.734;9.340;2023-02-16T01:05:36;32.00;;;21.50;;
485;SDS011;229;48.734;9.340;2023-02-16T01:08:05;32.00;;;22.00;;
485;SDS011;229;48.734;9.340;2023-02-16T01:10:50;31.08;;;21.00;;
485;SDS011;229;48.734;9.340;2023-02-16T01:13:34;34.55;;;19.92;;
485;SDS011;229;48.734;9.340;2023-02-16T01:16:02;32.03;;;20.48;;
485;SDS011;229;48.734;9.340;2023-02-16T01:18:31;28.92;;;20.30;;
485;SDS011;229;48.734;9.340;2023-02-16T01:20:58;33.67;;;21.70;;
485;SDS011;229;48.734;9.340;2023-02-16T01:23:25;30.60;;;20.65;;
485;SDS011;229;48.734;9.340;2023-02-16T01:25:53;34.88;;;20.10;;
485;SDS011;229;48.734;9.340;2023-02-16T01:28:21;29.10;;;20.65;;
485;SDS011;229;48.734;9.340;2023-02-16T01:30:49;28.77;;;19.83;;
485;SDS011;229;48.734;9.340;2023-02-16T01:33:16;29.02;;;21.73;;
485;SDS011;229;48.734;9.340;2023-02-16T01:35:45;30.67;;;20.45;;
485;SDS011;229;48.734;9.340;2023-02-16T01:38:14;31.67;;;20.20;;
485;SDS011;229;48.734;9.340;2023-02-16T01:40:43;28.63;;;20.40;;
485;SDS011;229;48.734;9.340;2023-02-16T01:43:15;28.15;;;19.58;;
485;SDS011;229;48.734;9.340;2023-02-16T01:45:44;26.08;;;19.33;;
485;SDS011;229;48.734;9.340;2023-02-16T01:48:13;23.88;;;18.40;;
485;SDS011;229;48.734;9.340;2023-02-16T01:50:46;26.95;;;19.70;;
485;SDS011;229;48.734;9.340;2023-02-16T01:53:17;27.85;;;19.00;;
485;SDS011;229;48.734;9.340;2023-02-16T01:55:47;29.20;;;19.90;;
485;SDS011;229;48.734;9.340;2023-02-16T01:58:17;25.85;;;18.63;;
485;SDS011;229;48.734;9.340;2023-02-16T02:03:32;27.92;;;18.42;;
485;SDS011;229;48.734;9.340;2023-02-16T02:06:18;26.42;;;18.50;;
485;SDS011;229;48.734;9.340;2023-02-16T02:08:50;26.55;;;19.05;;
485;SDS011;229;48.734;9.340;2023-02-16T02:11:21;25.52;;;18.10;;
485;SDS011;229;48.734;9.340;2023-02-16T02:13:51;25.25;;;17.45;;
485;SDS011;229;48.734;9.340;2023-02-16T02:16:22;26.63;;;18.52;;
485;SDS011;229;48.734;9.340;2023-02-16T02:18:50;27.20;;;17.80;;
485;SDS011;229;48.734;9.340;2023-02-16T02:21:29;25.17;;;18.30;;
485;SDS011;229;48.734;9.340;2023-02-16T02:24:39;26.63;;;18.55;;
485;SDS011;229;48.734;9.340;2023-02-16T02:27:13;25.80;;;17.02;;
485;SDS011;229;48.734;9.340;2023-02-16T02:32:26;27.80;;;18.35;;
485;SDS011;229;48.734;9.340;2023-02-16T02:34:58;22.65;;;16.15;;
485;SDS011;229;48.734;9.340;2023-02-16T02:37:28;22.33;;;17.10;;
485;SDS011;229;48.734;9.340;2023-02-16T02:39:57;23.67;;;17.90;;
485;SDS011;229;48.734;9.340;2023-02-16T02:42:30;32.03;;;18.15;;
485;SDS011;229;48.734;9.340;2023-02-16T02:45:01;24.05;;;16.75;;
485;SDS011;229;48.734;9.340;2023-02-16T02:47:37;26.67;;;16.80;;
485;SDS011;229;48.734;9.340;2023-02-16T02:52:46;20.17;;;16.65;;
485;SDS011;229;48.734;9.340;2023-02-16T02:55:13;22.63;;;17.58;;
485;SDS011;229;48.734;9.340;2023-02-16T02:58:00;23.40;;;17.58;;
485;SDS011;229;48.734;9.340;2023-02-16T03:00:57;21.88;;;16.58;;
485;SDS011;229;48.734;9.340;2023-02-16T03:03:26;26.30;;;17.50;;
485;SDS011;229;48.734;9.340;2023-02-16T03:05:55;21.23;;;16.92;;
485;SDS011;229;48.734;9.340;2023-02-16T03:08:23;22.95;;;16.42;;
485;SDS011;229;48.734;9.340;2023-02-16T03:10:53;25.30;;;17.77;;
485;SDS011;229;48.734;9.340;2023-02-16T03:13:41;26.25;;;16.58;;
485;SDS011;229;48.734;9.340;2023-02-16T03:16:11;22.45;;;17.10;;
485;SDS011;229;48.734;9.340;2023-02-16T03:18:38;21.25;;;16.20;;
485;SDS011;229;48.734;9.340;2023-02-16T03:21:25;23.85;;;17.65;;
485;SDS011;229;48.734;9.340;2023-02-16T03:24:11;23.85;;;16.17;;
485;SDS011;229;48.734;9.340;2023-02-16T03:26:57;21.40;;;15.93;;
485;SDS011;229;48.734;9.340;2023-02-16T03:29:44;20.45;;;15.80;;
485;SDS011;229;48.734;9.340;2023-02-16T03:32:11;21.33;;;15.60;;
485;SDS011;229;48.734;9.340;2023-02-16T03:34:38;20.98;;;16.15;;
485;SDS011;229;48.734;9.340;2023-02-16T03:37:06;23.58;;;16.83;;
485;SDS011;229;48.734;9.340;2023-02-16T03:39:33;21.90;;;16.33;;
485;SDS011;229;48.734;9.340;2023-02-16T03:42:21;21.80;;;16.33;;
485;SDS011;229;48.734;9.340;2023-02-16T03:44:50;22.20;;;16.27;;
485;SDS011;229;48.734;9.340;2023-02-16T03:47:17;22.25;;;16.08;;
485;SDS011;229;48.734;9.340;2023-02-16T03:49:44;21.83;;;16.30;;
485;SDS011;229;48.734;9.340;2023-02-16T03:52:11;18.88;;;15.95;;
485;SDS011;229;48.734;9.340;2023-02-16T03:54:38;24.88;;;16.90;;
485;SDS011;229;48.734;9.340;2023-02-16T03:57:06;27.70;;;17.27;;
485;SDS011;229;48.734;9.340;2023-02-16T03:59:33;22.88;;;16.35;;
485;SDS011;229;48.734;9.340;2023-02-16T04:02:01;26.05;;;16.25;;
485;SDS011;229;48.734;9.340;2023-02-16T04:04:29;23.25;;;16.20;;
485;SDS011;229;48.734;9.340;2023-02-16T04:06:56;23.08;;;16.10;;
485;SDS011;229;48.734;9.340;2023-02-16T04:09:23;22.25;;;16.05;;
485;SDS011;229;48.734;9.340;2023-02-16T04:11:50;25.83;;;17.10;;
485;SDS011;229;48.734;9.340;2023-02-16T04:14:35;20.27;;;15.98;;
485;SDS011;229;48.734;9.340;2023-02-16T04:17:03;25.08;;;17.00;;
485;SDS011;229;48.734;9.340;2023-02-16T04:19:31;25.50;;;17.52;;
485;SDS011;229;48.734;9.340;2023-02-16T04:21:58;24.17;;;16.95;;
485;SDS011;229;48.734;9.340;2023-02-16T04:24:25;21.38;;;15.52;;
485;SDS011;229;48.734;9.340;2023-02-16T04:26:52;22.85;;;16.73;;
485;SDS011;229;48.734;9.340;2023-02-16T04:29:19;24.30;;;17.08;;
485;SDS011;229;48.734;9.340;2023-02-16T04:31:46;23.55;;;16.58;;
485;SDS011;229;48.734;9.340;2023-02-16T04:34:15;24.55;;;16.98;;
485;SDS011;229;48.734;9.340;2023-02-16T04:36:42;22.42;;;16.90;;
485;SDS011;229;48.734;9.340;2023-02-16T04:39:10;24.25;;;16.85;;
485;SDS011;229;48.734;9.340;2023-02-16T04:41:37;23.75;;;15.90;;
485;SDS011;229;48.734;9.340;2023-02-16T04:44:04;25.75;;;17.27;;
485;SDS011;229;48.734;9.340;2023-02-16T04:46:31;24.27;;;16.58;;
485;SDS011;229;48.734;9.340;2023-02-16T04:48:58;23.23;;;17.60;;
485;SDS011;229;48.734;9.340;2023-02-16T04:51:27;24.65;;;18.65;;
485;SDS011;229;48.734;9.340;2023-02-16T04:53:54;25.25;;;18.00;;
485;SDS011;229;48.734;9.340;2023-02-16T04:56:21;25.00;;;17.83;;
485;SDS011;229;48.734;9.340;2023-02-16T04:58:48;22.90;;;18.10;;
485;SDS011;229;48.734;9.340;2023-02-16T05:01:19;26.08;;;19.50;;
485;SDS011;229;48.734;9.340;2023-02-16T05:03:46;27.13;;;18.38;;
485;SDS011;229;48.734;9.340;2023-02-16T05:06:13;24.88;;;17.75;;
485;SDS011;229;48.734;9.340;2023-02-16T05:08:42;24.15;;;18.70;;
485;SDS011;229;48.734;9.340;2023-02-16T05:11:09;27.63;;;17.92;;
485;SDS011;229;48.734;9.340;2023-02-16T05:13:54;26.35;;;19.38;;
485;SDS011;229;48.734;9.340;2023-02-16T05:16:39;29.38;;;20.05;;
485;SDS011;229;48.734;9.340;2023-02-16T05:19:06;29.92;;;18.90;;
485;SDS011;229;48.734;9.340;2023-02-16T05:21:33;25.52;;;19.15;;
485;SDS011;229;48.734;9.340;2023-02-16T05:24:02;27.75;;;18.27;;
485;SDS011;229;48.734;9.340;2023-02-16T05:26:30;26.08;;;18.25;;
485;SDS011;229;48.734;9.340;2023-02-16T05:28:57;28.77;;;20.23;;
485;SDS011;229;48.734;9.340;2023-02-16T05:31:25;26.35;;;19.63;;
485;SDS011;229;48.734;9.340;2023-02-16T05:33:52;27.58;;;19.95;;
485;SDS011;229;48.734;9.340;2023-02-16T05:36:19;29.00;;;19.90;;
485;SDS011;229;48.734;9.340;2023-02-16T05:38:47;32.20;;;18.67;;
485;SDS011;229;48.734;9.340;2023-02-16T05:41:15;27.10;;;19.40;;
485;SDS011;229;48.734;9.340;2023-02-16T05:43:48;24.17;;;18.55;;
485;SDS011;229;48.734;9.340;2023-02-16T05:46:15;28.05;;;19.77;;
485;SDS011;229;48.734;9.340;2023-02-16T05:48:43;30.92;;;20.00;;
485;SDS011;229;48.734;9.340;2023-02-16T05:51:10;26.08;;;18.80;;
485;SDS011;229;48.734;9.340;2023-02-16T05:53:37;24.90;;;19.17;;
485;SDS011;229;48.734;9.340;2023-02-16T05:56:04;24.55;;;18.00;;
485;SDS011;229;48.734;9.340;2023-02-16T05:58:33;25.92;;;19.95;;
485;SDS011;229;48.734;9.340;2023-02-16T06:01:00;25.55;;;19.67;;
485;SDS011;229;48.734;9.340;2023-02-16T06:03:27;27.08;;;18.05;;
485;SDS011;229;48.734;9.340;2023-02-16T06:05:55;23.40;;;17.70;;
485;SDS011;229;48.734;9.340;2023-02-16T06:08:23;28.25;;;18.05;;
485;SDS011;229;48.734;9.340;2023-02-16T06:10:51;27.38;;;19.45;;
485;SDS011;229;48.734;9.340;2023-02-16T06:13:18;28.20;;;20.05;;
485;SDS011;229;48.734;9.340;2023-02-16T06:15:49;28.52;;;20.05;;
485;SDS011;229;48.734;9.340;2023-02-16T06:18:16;30.05;;;20.55;;
485;SDS011;229;48.734;9.340;2023-02-16T06:20:44;24.30;;;18.65;;
485;SDS011;229;48.734;9.340;2023-02-16T06:23:11;27.27;;;19.70;;
485;SDS011;229;48.734;9.340;2023-02-16T06:25:40;27.83;;;19.65;;
485;SDS011;229;48.734;9.340;2023-02-16T06:28:07;27.95;;;18.98;;
485;SDS011;229;48.734;9.340;2023-02-16T06:30:35;26.73;;;20.83;;
485;SDS011;229;48.734;9.340;2023-02-16T06:33:03;29.20;;;20.40;;
485;SDS011;229;48.734;9.340;2023-02-16T06:35:31;27.75;;;19.45;;
485;SDS011;229;48.734;9.340;2023-02-16T06:37:58;29.98;;;22.00;;
485;SDS011;229;48.734;9.340;2023-02-16T06:40:25;27.20;;;21.20;;
485;SDS011;229;48.734;9.340;2023-02-16T06:42:52;30.42;;;21.70;;
485;SDS011;229;48.734;9.340;2023-02-16T06:45:19;25.48;;;19.95;;
485;SDS011;229;48.734;9.340;2023-02-16T06:47:47;26.88;;;20.58;;
485;SDS011;229;48.734;9.340;2023-02-16T06:50:15;27.70;;;21.10;;
485;SDS011;229;48.734;9.340;2023-02-16T06:52:43;26.35;;;19.80;;
485;SDS011;229;48.734;9.340;2023-02-16T06:55:10;32.13;;;21.40;;
485;SDS011;229;48.734;9.340;2023-02-16T06:57:37;30.45;;;19.88;;
485;SDS011;229;48.734;9.340;2023-02-16T07:00:05;28.05;;;20.48;;
485;SDS011;229;48.734;9.340;2023-02-16T07:02:32;27.88;;;20.52;;
485;SDS011;229;48.734;9.340;2023-02-16T07:05:01;29.13;;;21.23;;
485;SDS011;229;48.734;9.340;2023-02-16T07:07:30;25.08;;;19.00;;
485;SDS011;229;48.734;9.340;2023-02-16T07:09:57;27.13;;;19.80;;
485;SDS011;229;48.734;9.340;2023-02-16T07:12:24;36.97;;;22.63;;
485;SDS011;229;48.734;9.340;2023-02-16T07:14:52;32.22;;;22.50;;
485;SDS011;229;48.734;9.340;2023-02-16T07:17:19;33.63;;;22.00;;
485;SDS011;229;48.734;9.340;2023-02-16T07:19:46;29.88;;;20.58;;
485;SDS011;229;48.734;9.340;2023-02-16T07:22:13;30.65;;;22.63;;
485;SDS011;229;48.734;9.340;2023-02-16T07:24:43;32.80;;;22.08;;
485;SDS011;229;48.734;9.340;2023-02-16T07:27:10;30.30;;;22.10;;
485;SDS011;229;48.734;9.340;2023-02-16T07:29:37;27.20;;;20.67;;
485;SDS011;229;48.734;9.340;2023-02-16T07:32:04;29.35;;;21.83;;
485;SDS011;229;48.734;9.340;2023-02-16T07:34:31;25.35;;;19.83;;
485;SDS011;229;48.734;9.340;2023-02-16T07:36:58;31.70;;;20.58;;
485;SDS011;229;48.734;9.340;2023-02-16T07:39:26;25.05;;;20.23;;
485;SDS011;229;48.734;9.340;2023-02-16T07:41:56;29.60;;;20.77;;
485;SDS011;229;48.734;9.340;2023-02-16T07:44:23;26.00;;;19.95;;
485;SDS011;229;48.734;9.340;2023-02-16T07:46:50;27.95;;;20.10;;
485;SDS011;229;48.734;9.340;2023-02-16T07:49:17;29.98;;;20.52;;
485;SDS011;229;48.734;9.340;2023-02-16T07:51:45;24.65;;;18.02;;
485;SDS011;229;48.734;9.340;2023-02-16T07:54:12;24.83;;;18.45;;
485;SDS011;229;48.734;9.340;2023-02-16T07:56:39;22.85;;;18.10;;
485;SDS011;229;48.734;9.340;2023-02-16T07:59:08;27.40;;;20.90;;
485;SDS011;229;48.734;9.340;2023-02-16T08:01:35;32.45;;;23.02;;
485;SDS011;229;48.734;9.340;2023-02-16T08:04:04;31.92;;;24.50;;
485;SDS011;229;48.734;9.340;2023-02-16T08:06:33;31.10;;;23.30;;
485;SDS011;229;48.734;9.340;2023-02-16T08:09:00;30.40;;;21.75;;
485;SDS011;229;48.734;9.340;2023-02-16T08:11:27;31.85;;;21.90;;
485;SDS011;229;48.734;9.340;2023-02-16T08:13:54;30.33;;;21.10;;
485;SDS011;229;48.734;9.340;2023-02-16T08:16:23;30.38;;;22.23;;
485;SDS011;229;48.734;9.340;2023-02-16T08:18:51;34.58;;;22.13;;
485;SDS011;229;48.734;9.340;2023-02-16T08:21:19;33.45;;;22.95;;
485;SDS011;229;48.734;9.340;2023-02-16T08:23:51;41.95;;;21.70;;
485;SDS011;229;48.734;9.340;2023-02-16T08:26:20;29.75;;;21.98;;
485;SDS011;229;48.734;9.340;2023-02-16T08:28:47;28.05;;;21.83;;
485;SDS011;229;48.734;9.340;2023-02-16T08:31:15;29.35;;;19.73;;
485;SDS011;229;48.734;9.340;2023-02-16T08:33:44;28.30;;;20.55;;
485;SDS011;229;48.734;9.340;2023-02-16T08:36:15;27.58;;;19.10;;
485;SDS011;229;48.734;9.340;2023-02-16T08:38:42;26.95;;;20.08;;
485;SDS011;229;48.734;9.340;2023-02-16T08:41:10;27.42;;;18.45;;
485;SDS011;229;48.734;9.340;2023-02-16T08:43:37;32.05;;;19.00;;
485;SDS011;229;48.734;9.340;2023-02-16T08:46:05;26.30;;;19.65;;
485;SDS011;229;48.734;9.340;2023-02-16T08:48:33;28.85;;;20.58;;
485;SDS011;229;48.734;9.340;2023-02-16T08:51:01;30.45;;;19.75;;
485;SDS011;229;48.734;9.340;2023-02-16T08:53:30;27.17;;;20.50;;
485;SDS011;229;48.734;9.340;2023-02-16T08:55:58;23.98;;;18.90;;
485;SDS011;229;48.734;9.340;2023-02-16T08:58:26;29.85;;;18.83;;
485;SDS011;229;48.734;9.340;2023-02-16T09:00:54;28.58;;;19.20;;
485;SDS011;229;48.734;9.340;2023-02-16T09:03:21;30.20;;;20.80;;
485;SDS011;229;48.734;9.340;2023-02-16T09:05:49;29.58;;;19.77;;
485;SDS011;229;48.734;9.340;2023-02-16T09:08:18;30.17;;;20.95;;
485;SDS011;229;48.734;9.340;2023-02-16T09:10:46;31.02;;;21.08;;
485;SDS011;229;48.734;9.340;2023-02-16T09:13:13;34.90;;;23.25;;
485;SDS011;229;48.734;9.340;2023-02-16T09:15:40;29.98;;;22.08;;
485;SDS011;229;48.734;9.340;2023-02-16T09:18:08;29.85;;;23.00;;
485;SDS011;229;48.734;9.340;2023-02-16T09:20:36;33.33;;;23.30;;
485;SDS011;229;48.734;9.340;2023-02-16T09:23:04;34.22;;;21.63;;
485;SDS011;229;48.734;9.340;2023-02-16T09:25:34;29.23;;;20.17;;
485;SDS011;229;48.734;9.340;2023-02-16T09:28:02;25.35;;;18.60;;
485;SDS011;229;48.734;9.340;2023-02-16T09:30:30;24.13;;;17.90;;
485;SDS011;229;48.734;9.340;2023-02-16T09:32:58;27.10;;;19.70;;
485;SDS011;229;48.734;9.340;2023-02-16T09:35:26;27.50;;;17.73;;
485;SDS011;229;48.734;9.340;2023-02-16T09:37:53;23.48;;;17.55;;
485;SDS011;229;48.734;9.340;2023-02-16T09:40:21;29.38;;;20.80;;
485;SDS011;229;48.734;9.340;2023-02-16T09:42:56;29.55;;;18.75;;
485;SDS011;229;48.734;9.340;2023-02-16T09:45:27;26.67;;;17.90;;
485;SDS011;229;48.734;9.340;2023-02-16T09:47:54;28.90;;;19.77;;
485;SDS011;229;48.734;9.340;2023-02-16T09:50:24;28.45;;;20.25;;
485;SDS011;229;48.734;9.340;2023-02-16T09:52:52;30.65;;;20.20;;
485;SDS011;229;48.734;9.340;2023-02-16T09:55:20;29.02;;;19.95;;
485;SDS011;229;48.734;9.340;2023-02-16T09:57:56;27.92;;;19.48;;
485;SDS011;229;48.734;9.340;2023-02-16T10:00:42;24.95;;;17.92;;
485;SDS011;229;48.734;9.340;2023-02-16T10:03:17;27.75;;;17.42;;
485;SDS011;229;48.734;9.340;2023-02-16T10:05:46;23.23;;;17.88;;
485;SDS011;229;48.734;9.340;2023-02-16T10:08:18;27.13;;;19.45;;
485;SDS011;229;48.734;9.340;2023-02-16T10:10:48;33.80;;;19.15;;
485;SDS011;229;48.734;9.340;2023-02-16T10:13:20;26.77;;;19.60;;
485;SDS011;229;48.734;9.340;2023-02-16T10:15:49;27.30;;;19.20;;
485;SDS011;229;48.734;9.340;2023-02-16T10:18:19;32.38;;;18.70;;
485;SDS011;229;48.734;9.340;2023-02-16T10:20:49;25.55;;;17.77;;
485;SDS011;229;48.734;9.340;2023-02-16T10:23:22;26.05;;;17.90;;
485;SDS011;229;48.734;9.340;2023-02-16T10:25:51;32.22;;;17.83;;
485;SDS011;229;48.734;9.340;2023-02-16T10:28:25;21.00;;;15.48;;
485;SDS011;229;48.734;9.340;2023-02-16T10:30:56;22.13;;;17.27;;
485;SDS011;229;48.734;9.340;2023-02-16T10:33:30;23.58;;;17.73;;
485;SDS011;229;48.734;9.340;2023-02-16T10:36:06;26.95;;;17.00;;
485;SDS011;229;48.734;9.340;2023-02-16T10:38:37;25.27;;;16.67;;
485;SDS011;229;48.734;9.340;2023-02-16T10:41:12;23.45;;;16.75;;
485;SDS011;229;48.734;9.340;2023-02-16T10:43:46;24.23;;;16.70;;
485;SDS011;229;48.734;9.340;2023-02-16T10:46:18;24.23;;;16.52;;
485;SDS011;229;48.734;9.340;2023-02-16T10:48:46;20.42;;;15.07;;
485;SDS011;229;48.734;9.340;2023-02-16T10:51:15;23.52;;;15.88;;
485;SDS011;229;48.734;9.340;2023-02-16T10:53:45;22.73;;;13.98;;
485;SDS011;229;48.734;9.340;2023-02-16T10:56:21;20.50;;;14.75;;
485;SDS011;229;48.734;9.340;2023-02-16T10:58:51;18.75;;;14.00;;
485;SDS011;229;48.734;9.340;2023-02-16T11:01:19;19.33;;;13.88;;
485;SDS011;229;48.734;9.340;2023-02-16T11:03:48;22.05;;;13.50;;
485;SDS011;229;48.734;9.340;2023-02-16T11:06:16;18.20;;;13.48;;
485;SDS011;229;48.734;9.340;2023-02-16T11:08:47;25.13;;;13.88;;
485;SDS011;229;48.734;9.340;2023-02-16T11:11:15;18.20;;;13.32;;
485;SDS011;229;48.734;9.340;2023-02-16T11:13:45;14.68;;;11.35;;
485;SDS011;229;48.734;9.340;2023-02-16T11:16:18;15.13;;;11.50;;
485;SDS011;229;48.734;9.340;2023-02-16T11:18:47;17.48;;;11.95;;
485;SDS011;229;48.734;9.340;2023-02-16T11:21:21;15.52;;;11.93;;
485;SDS011;229;48.734;9.340;2023-02-16T11:24:08;17.77;;;11.70;;
485;SDS011;229;48.734;9.340;2023-02-16T11:26:36;17.98;;;11.90;;
485;SDS011;229;48.734;9.340;2023-02-16T11:29:05;21.35;;;10.63;;
485;SDS011;229;48.734;9.340;2023-02-16T11:31:35;18.23;;;11.80;;
485;SDS011;229;48.734;9.340;2023-02-16T11:34:03;18.10;;;10.15;;
485;SDS011;229;48.734;9.340;2023-02-16T11:36:32;15.35;;;10.82;;
485;SDS011;229;48.734;9.340;2023-02-16T11:39:01;17.58;;;11.40;;
485;SDS011;229;48.734;9.340;2023-02-16T11:41:28;17.35;;;11.60;;
485;SDS011;229;48.734;9.340;2023-02-16T11:43:57;18.13;;;11.32;;
485;SDS011;229;48.734;9.340;2023-02-16T11:46:24;17.63;;;10.98;;
485;SDS011;229;48.734;9.340;2023-02-16T11:48:54;14.02;;;10.35;;
485;SDS011;229;48.734;9.340;2023-02-16T11:51:33;19.35;;;11.80;;
485;SDS011;229;48.734;9.340;2023-02-16T11:54:02;18.75;;;11.82;;
485;SDS011;229;48.734;9.340;2023-02-16T11:56:31;25.98;;;12.75;;
485;SDS011;229;48.734;9.340;2023-02-16T11:59:02;18.50;;;12.13;;
485;SDS011;229;48.734;9.340;2023-02-16T12:01:34;16.33;;;12.30;;
485;SDS011;229;48.734;9.340;2023-02-16T12:04:06;17.35;;;11.80;;
485;SDS011;229;48.734;9.340;2023-02-16T12:06:45;17.27;;;11.18;;
485;SDS011;229;48.734;9.340;2023-02-16T12:09:19;15.35;;;11.55;;
485;SDS011;229;48.734;9.340;2023-02-16T12:11:52;16.67;;;11.98;;
485;SDS011;229;48.734;9.340;2023-02-16T12:17:18;24.88;;;12.43;;
485;SDS011;229;48.734;9.340;2023-02-16T12:19:51;24.95;;;10.95;;
485;SDS011;229;48.734;9.340;2023-02-16T12:22:27;15.75;;;11.45;;
485;SDS011;229;48.734;9.340;2023-02-16T12:24:58;17.80;;;10.80;;
485;SDS011;229;48.734;9.340;2023-02-16T12:27:30;13.88;;;10.32;;
485;SDS011;229;48.734;9.340;2023-02-16T12:30:00;21.35;;;10.40;;
485;SDS011;229;48.734;9.340;2023-02-16T12:32:35;14.77;;;9.02;;
485;SDS011;229;48.734;9.340;2023-02-16T12:35:11;12.25;;;9.32;;
485;SDS011;229;48.734;9.340;2023-02-16T12:37:43;11.45;;;8.25;;
485;SDS011;229;48.734;9.340;2023-02-16T12:40:17;12.00;;;8.77;;
485;SDS011;229;48.734;9.340;2023-02-16T12:42:52;10.40;;;8.45;;
485;SDS011;229;48.734;9.340;2023-02-16T12:45:22;14.75;;;7.95;;
485;SDS011;229;48.734;9.340;2023-02-16T12:47:51;11.13;;;8.23;;
485;SDS011;229;48.734;9.340;2023-02-16T12:50:23;8.93;;;7.50;;
485;SDS011;229;48.734;9.340;2023-02-16T12:52:52;11.07;;;7.25;;
485;SDS011;229;48.734;9.340;2023-02-16T12:55:22;8.68;;;7.60;;
485;SDS011;229;48.734;9.340;2023-02-16T12:57:53;6.72;;;6.30;;
485;SDS011;229;48.734;9.340;2023-02-16T13:00:23;10.88;;;7.25;;
485;SDS011;229;48.734;9.340;2023-02-16T13:02:52;15.40;;;6.90;;
485;SDS011;229;48.734;9.340;2023-02-16T13:05:24;10.40;;;6.40;;
485;SDS011;229;48.734;9.340;2023-02-16T13:07:53;18.10;;;7.00;;
485;SDS011;229;48.734;9.340;2023-02-16T13:10:22;11.30;;;7.13;;
485;SDS011;229;48.734;9.340;2023-02-16T13:12:52;13.55;;;7.00;;
485;SDS011;229;48.734;9.340;2023-02-16T13:15:22;11.03;;;6.30;;
485;SDS011;229;48.734;9.340;2023-02-16T13:17:52;8.40;;;6.47;;
485;SDS011;229;48.734;9.340;2023-02-16T13:20:21;9.40;;;6.53;;
485;SDS011;229;48.734;9.340;2023-02-16T13:22:57;8.20;;;6.33;;
485;SDS011;229;48.734;9.340;2023-02-16T13:25:36;10.33;;;6.03;;
485;SDS011;229;48.734;9.340;2023-02-16T13:28:12;6.00;;;5.70;;
485;SDS011;229;48.734;9.340;2023-02-16T13:30:49;11.83;;;6.87;;
485;SDS011;229;48.734;9.340;2023-02-16T13:33:35;8.80;;;6.63;;
485;SDS011;229;48.734;9.340;2023-02-16T13:36:09;8.30;;;6.30;;
485;SDS011;229;48.734;9.340;2023-02-16T13:41:33;6.87;;;6.47;;
485;SDS011;229;48.734;9.340;2023-02-16T13:44:06;6.63;;;6.30;;
485;SDS011;229;48.734;9.340;2023-02-16T13:46:36;7.77;;;5.73;;
485;SDS011;229;48.734;9.340;2023-02-16T13:49:04;7.83;;;5.63;;
485;SDS011;229;48.734;9.340;2023-02-16T13:51:38;7.00;;;6.50;;
485;SDS011;229;48.734;9.340;2023-02-16T13:54:06;8.60;;;6.47;;
485;SDS011;229;48.734;9.340;2023-02-16T13:56:35;6.93;;;6.50;;
485;SDS011;229;48.734;9.340;2023-02-16T14:01:48;14.87;;;8.60;;
485;SDS011;229;48.734;9.340;2023-02-16T14:09:44;17.03;;;10.47;;
485;SDS011;229;48.734;9.340;2023-02-16T14:12:17;16.33;;;10.70;;
485;SDS011;229;48.734;9.340;2023-02-16T14:14:54;15.63;;;10.57;;
485;SDS011;229;48.734;9.340;2023-02-16T14:17:23;17.70;;;11.13;;
485;SDS011;229;48.734;9.340;2023-02-16T14:19:53;14.40;;;10.37;;
485;SDS011;229;48.734;9.340;2023-02-16T14:22:21;16.13;;;10.53;;
485;SDS011;229;48.734;9.340;2023-02-16T14:24:50;15.87;;;11.27;;
485;SDS011;229;48.734;9.340;2023-02-16T14:30:02;17.55;;;11.55;;
485;SDS011;229;48.734;9.340;2023-02-16T14:32:31;18.48;;;11.48;;
485;SDS011;229;48.734;9.340;2023-02-16T14:35:03;20.67;;;11.88;;
485;SDS011;229;48.734;9.340;2023-02-16T14:37:34;16.60;;;11.05;;
485;SDS011;229;48.734;9.340;2023-02-16T14:40:03;20.52;;;11.68;;
485;SDS011;229;48.734;9.340;2023-02-16T14:42:31;21.63;;;11.88;;
485;SDS011;229;48.734;9.340;2023-02-16T14:45:03;21.20;;;11.60;;
485;SDS011;229;48.734;9.340;2023-02-16T14:47:36;21.38;;;11.30;;
485;SDS011;229;48.734;9.340;2023-02-16T14:50:22;17.75;;;11.23;;
485;SDS011;229;48.734;9.340;2023-02-16T14:55:53;17.23;;;11.57;;
485;SDS011;229;48.734;9.340;2023-02-16T14:58:27;21.98;;;13.43;;
485;SDS011;229;48.734;9.340;2023-02-16T15:01:01;16.92;;;11.88;;
485;SDS011;229;48.734;9.340;2023-02-16T15:03:37;22.38;;;11.82;;
485;SDS011;229;48.734;9.340;2023-02-16T15:06:05;19.02;;;12.25;;
485;SDS011;229;48.734;9.340;2023-02-16T15:08:33;18.85;;;13.15;;
485;SDS011;229;48.734;9.340;2023-02-16T15:11:11;19.88;;;12.20;;
485;SDS011;229;48.734;9.340;2023-02-16T15:13:39;21.52;;;13.05;;
485;SDS011;229;48.734;9.340;2023-02-16T15:16:08;19.15;;;11.65;;
485;SDS011;229;48.734;9.340;2023-02-16T15:18:39;15.98;;;11.70;;
485;SDS011;229;48.734;9.340;2023-02-16T15:21:14;17.38;;;10.98;;
485;SDS011;229;48.734;9.340;2023-02-16T15:23:46;18.73;;;11.70;;
485;SDS011;229;48.734;9.340;2023-02-16T15:26:16;19.00;;;11.80;;
485;SDS011;229;48.734;9.340;2023-02-16T15:28:49;18.90;;;11.52;;
485;SDS011;229;48.734;9.340;2023-02-16T15:31:18;18.85;;;13.30;;
485;SDS011;229;48.734;9.340;2023-02-16T15:33:53;25.92;;;12.90;;
485;SDS011;229;48.734;9.340;2023-02-16T15:36:21;19.25;;;11.90;;
485;SDS011;229;48.734;9.340;2023-02-16T15:38:54;17.88;;;11.32;;
485;SDS011;229;48.734;9.340;2023-02-16T15:41:23;16.85;;;11.32;;
485;SDS011;229;48.734;9.340;2023-02-16T15:43:51;20.42;;;11.73;;
485;SDS011;229;48.734;9.340;2023-02-16T15:46:23;18.60;;;11.90;;
485;SDS011;229;48.734;9.340;2023-02-16T15:48:51;23.60;;;13.05;;
485;SDS011;229;48.734;9.340;2023-02-16T15:51:20;19.05;;;12.23;;
485;SDS011;229;48.734;9.340;2023-02-16T15:53:49;21.90;;;11.20;;
485;SDS011;229;48.734;9.340;2023-02-16T15:56:35;15.95;;;10.93;;
485;SDS011;229;48.734;9.340;2023-02-16T15:59:06;22.27;;;12.75;;
485;SDS011;229;48.734;9.340;2023-02-16T16:01:43;21.75;;;12.80;;
485;SDS011;229;48.734;9.340;2023-02-16T16:04:14;22.00;;;11.95;;